Latest Weather Observations for Cape Bruny AWS

IDT60901

Issued at 8:31 pm EST Wednesday 24 August 2016 (issued every 10 minutes, with the page automatically refreshed every 10 minutes)

About weather observations | Map of Hobart area stations | Latest observations for Hobart area | Other Formats
Station Details ID: 094198 Name: CAPE BRUNY (CAPE BRUNY) Lat: -43.49 Lon: 147.14 Height: 59.7 m
Data from the previous 72 hours. | See also: Recent months at Cape Bruny AWS
Date/Time
EST
Temp
°C
App
Temp
°C
Dew
Point
°C
Rel
Hum
%
Delta-T
°C
Wind Press
QNH
hPa
Press
MSL
hPa
Rain since
9am
mm
Dir  Spd
km/h
Gust
km/h
Spd
kts
Gust
kts
24/08:30pm 6.9 0.9 3.5 79 1.4 W 24 30 13 16 1010.1 1010.2 0.8
24/08:00pm 7.0 -0.1 3.8 80 1.4 W 30 35 16 19 1010.1 1010.2 0.8
24/07:30pm 6.5 -1.1 3.7 82 1.2 W 33 43 18 23 1010.1 1010.2 0.8
24/07:00pm 7.1 -1.0 3.2 76 1.6 W 35 44 19 24 1010.4 1010.5 0.8
24/06:30pm 7.4 0.4 4.0 79 1.5 W 30 39 16 21 1010.1 1010.2 0.8
24/06:00pm 7.2 0.2 4.2 81 1.3 WSW 30 39 16 21 1010.2 1010.3 0.8
24/05:30pm 8.0 2.2 4.2 77 1.7 W 24 32 13 17 1009.8 1009.9 0.8
24/05:00pm 8.5 1.5 4.1 74 1.9 W 30 37 16 20 1009.7 1009.8 0.8
24/04:30pm 8.2 0.7 4.4 77 1.7 WSW 33 43 18 23 1009.7 1009.8 0.8
24/04:00pm 8.7 1.3 4.1 73 2.0 WSW 32 41 17 22 1009.6 1009.7 0.8
24/03:30pm 9.5 2.8 3.7 67 2.5 W 28 37 15 20 1009.5 1009.6 0.8
24/03:00pm 10.1 2.6 3.6 64 2.9 W 32 41 17 22 1009.6 1009.7 0.8
24/02:30pm 10.6 2.3 4.3 65 2.8 W 37 50 20 27 1009.6 1009.7 0.8
24/02:00pm 9.9 1.9 3.9 66 2.6 W 35 44 19 24 1009.8 1009.9 0.8
24/01:30pm 10.0 2.6 4.0 66 2.7 WSW 32 39 17 21 1010.1 1010.2 0.8
24/01:00pm 10.4 2.6 4.8 68 2.5 WSW 35 50 19 27 1010.4 1010.5 0.8
24/12:30pm 9.8 2.3 4.6 70 2.3 WSW 33 44 18 24 1010.5 1010.6 0.8
24/12:00pm 9.6 4.0 5.2 74 2.0 W 24 30 13 16 1011.1 1011.2 0.8
24/11:30am 7.6 0.6 4.2 79 1.5 W 30 35 16 19 1011.4 1011.5 0.8
24/11:00am 8.8 2.9 5.9 82 1.3 W 26 33 14 18 1011.6 1011.7 0.6
24/10:30am 8.2 3.4 5.8 85 1.1 W 20 28 11 15 1011.8 1011.9 0.6
24/10:00am 6.8 0.4 5.0 88 0.8 W 28 37 15 20 1012.1 1012.2 0.6
24/09:30am 7.7 2.9 4.7 81 1.3 WNW 19 26 10 14 1012.4 1012.5 0.0
24/09:00am 6.2 -1.3 3.7 84 1.1 W 32 39 17 21 1012.6 1012.7 2.4
24/08:30am 6.5 -0.9 3.8 83 1.2 W 32 43 17 23 1012.6 1012.7 1.8
24/08:00am 6.3 0.5 4.3 87 0.9 W 24 30 13 16 1012.7 1012.8 1.8
24/07:30am 6.7 0.2 4.5 86 1.0 W 28 39 15 21 1012.5 1012.6 1.2
24/07:00am 6.5 -0.1 4.2 85 1.0 W 28 39 15 21 1012.3 1012.4 1.2
24/06:30am 6.8 -0.6 3.8 81 1.3 W 32 41 17 22 1012.0 1012.1 0.8
24/06:00am 6.6 1.4 3.6 81 1.3 WNW 20 35 11 19 1012.1 1012.2 0.8
24/05:30am 6.9 1.7 3.5 79 1.4 WNW 20 26 11 14 1012.1 1012.2 0.6
24/05:00am 6.6 2.7 3.4 80 1.4 WNW 13 17 7 9 1012.1 1012.2 0.6
24/04:30am 6.8 2.3 4.3 84 1.1 W 17 24 9 13 1012.1 1012.2 0.6
24/04:00am 7.3 2.3 3.4 76 1.7 W 19 24 10 13 1012.1 1012.2 0.6
24/03:30am 6.6 1.9 2.9 77 1.5 WNW 17 24 9 13 1012.1 1012.2 0.6
24/03:00am 6.8 1.5 3.2 78 1.5 W 20 32 11 17 1012.2 1012.3 0.6
24/02:30am 6.7 1.6 3.3 79 1.4 WNW 19 24 10 13 1012.7 1012.8 0.6
24/02:00am 6.3 1.6 3.3 81 1.3 WNW 17 22 9 12 1013.0 1013.1 0.4
24/01:30am 6.2 3.7 3.5 83 1.1 W 6 17 3 9 1013.2 1013.3 0.4
24/01:00am 6.5 3.5 4.0 84 1.1 WNW 9 15 5 8 1013.1 1013.2 0.4
24/12:30am 6.4 2.9 3.6 82 1.2 NW 11 15 6 8 1013.5 1013.6 0.4
24/12:00am 6.9 1.0 3.9 81 1.3 W 24 30 13 16 1013.3 1013.4 0.4
 
Date/Time
EST
Temp
°C
App
Temp
°C
Dew
Point
°C
Rel
Hum
%
Delta-T
°C
Wind Press
QNH
hPa
Press
MSL
hPa
Rain since
9am
mm
Dir  Spd
km/h
Gust
km/h
Spd
kts
Gust
kts
23/11:30pm 7.1 2.3 4.8 85 1.0 WNW 19 24 10 13 1013.6 1013.7 0.2
23/11:00pm 6.9 1.4 4.0 82 1.2 W 22 30 12 16 1013.5 1013.6 0.2
23/10:30pm 7.5 2.6 4.1 79 1.5 W 19 28 10 15 1013.5 1013.6 0.0
23/10:00pm 7.2 2.2 3.8 79 1.5 WNW 19 24 10 13 1013.8 1013.9 0.0
23/09:30pm 8.0 2.9 4.0 76 1.7 WNW 20 26 11 14 1013.9 1014.0 0.0
23/09:00pm 7.7 2.5 3.4 74 1.8 WNW 20 28 11 15 1013.8 1013.9 0.0
23/08:30pm 7.8 1.8 3.5 74 1.8 NW 24 32 13 17 1013.7 1013.8 0.0
23/08:00pm 7.6 2.0 3.5 75 1.8 NW 22 32 12 17 1013.7 1013.8 0.0
23/07:30pm 7.5 1.5 3.2 74 1.8 WNW 24 33 13 18 1013.6 1013.7 0.0
23/07:00pm 7.3 2.1 3.4 76 1.7 NW 20 26 11 14 1013.6 1013.7 0.0
23/06:30pm 7.5 2.9 3.6 76 1.7 WNW 17 20 9 11 1013.7 1013.8 0.0
23/06:00pm 7.8 2.6 3.3 73 1.9 W 20 30 11 16 1013.5 1013.6 0.0
23/05:30pm 8.0 0.9 3.5 73 1.9 WSW 30 39 16 21 1013.1 1013.2 0.0
23/05:00pm 8.6 1.5 3.8 72 2.1 W 30 37 16 20 1012.9 1013.0 0.0
23/04:30pm 8.9 1.4 3.7 70 2.3 W 32 41 17 22 1012.8 1012.9 0.0
23/04:00pm 9.4 0.4 2.7 63 2.9 W 39 48 21 26 1012.6 1012.7 0.0
23/03:30pm 10.5 2.0 3.3 61 3.1 W 37 52 20 28 1012.5 1012.6 0.0
23/03:00pm 10.5 2.6 2.1 56 3.6 W 33 46 18 25 1012.6 1012.7 0.0
23/02:41pm 10.5 1.7 3.5 62 3.1 W 39 57 21 31 1012.8 1012.9 0.0
23/02:30pm 9.3 -0.9 1.2 57 3.3 W 44 57 24 31 1012.5 1012.6 0.0
23/02:00pm 10.6 2.1 2.9 59 3.3 W 37 46 20 25 1012.5 1012.6 0.0
23/01:30pm 9.9 2.4 3.4 64 2.8 WSW 32 43 17 23 1012.4 1012.5 0.0
23/01:00pm 9.1 1.8 4.3 72 2.1 WSW 32 37 17 20 1012.4 1012.5 0.0
23/12:30pm 9.5 2.9 4.3 70 2.3 WSW 28 39 15 21 1012.6 1012.7 0.0
23/12:00pm 11.0 5.0 5.1 67 2.7 WSW 26 35 14 19 1012.9 1013.0 0.0
23/11:30am 10.9 6.4 4.4 64 2.9 WSW 17 26 9 14 1013.1 1013.2 0.0
23/11:00am 9.9 5.3 3.6 65 2.8 W 17 24 9 13 1013.2 1013.3 0.0
23/10:30am 10.9 7.0 3.2 59 3.4 W 13 19 7 10 1013.3 1013.4 0.0
23/10:00am 10.9 7.0 3.5 60 3.3 W 13 15 7 8 1013.4 1013.5 0.0
23/09:30am 9.9 5.2 3.4 64 2.8 WNW 17 20 9 11 1013.3 1013.4 0.0
23/09:00am 9.4 3.8 3.6 67 2.5 WNW 22 28 12 15 1013.2 1013.3 0.0
23/08:30am 8.8 3.8 3.4 69 2.3 WNW 19 26 10 14 1013.1 1013.2 0.0
23/08:00am 7.4 1.7 2.9 73 1.9 NW 22 30 12 16 1013.1 1013.2 0.0
23/07:30am 6.9 1.8 2.8 75 1.7 NW 19 26 10 14 1012.7 1012.8 0.0
23/07:00am 6.8 3.2 2.9 76 1.6 NW 11 19 6 10 1012.4 1012.5 0.0
23/06:30am 6.9 2.1 2.8 75 1.7 WNW 17 22 9 12 1012.2 1012.3 0.0
23/06:00am 6.6 2.2 2.7 76 1.6 WNW 15 20 8 11 1012.0 1012.1 0.0
23/05:30am 7.1 2.4 3.0 75 1.7 NW 17 22 9 12 1011.9 1012.0 0.0
23/05:00am 6.9 1.6 2.8 75 1.7 NW 20 28 11 15 1011.8 1011.9 0.0
23/04:30am 7.0 1.2 2.5 73 1.9 WNW 22 30 12 16 1011.8 1011.9 0.0
23/04:00am 7.0 0.9 2.9 75 1.7 WNW 24 33 13 18 1011.6 1011.7 0.0
23/03:30am 7.0 0.5 2.5 73 1.9 NW 26 39 14 21 1011.7 1011.8 0.0
23/03:00am 7.1 0.7 3.0 75 1.7 WNW 26 35 14 19 1011.6 1011.7 0.0
23/02:30am 6.9 0.0 2.8 75 1.7 WNW 28 39 15 21 1011.8 1011.9 0.0
23/02:00am 6.9 0.5 3.2 77 1.6 WNW 26 39 14 21 1011.9 1012.0 0.0
23/01:30am 6.8 0.0 2.9 76 1.6 WNW 28 41 15 22 1012.0 1012.1 0.0
23/01:00am 7.0 -0.6 3.1 76 1.6 WNW 32 43 17 23 1011.9 1012.0 0.0
23/12:30am 6.9 -0.3 2.8 75 1.7 WNW 30 43 16 23 1011.8 1011.9 0.0
23/12:00am 7.1 -0.5 3.0 75 1.7 WNW 32 41 17 22 1011.7 1011.8 0.0
 
Date/Time
EST
Temp
°C
App
Temp
°C
Dew
Point
°C
Rel
Hum
%
Delta-T
°C
Wind Press
QNH
hPa
Press
MSL
hPa
Rain since
9am
mm
Dir  Spd
km/h
Gust
km/h
Spd
kts
Gust
kts
22/11:30pm 7.3 0.1 3.0 74 1.8 NW 30 41 16 22 1011.8 1011.9 0.0
22/11:00pm 7.2 -0.1 2.3 71 2.0 NW 30 41 16 22 1011.7 1011.8 0.0
22/10:30pm 6.9 1.6 2.0 71 2.0 NW 19 30 10 16 1011.9 1012.0 0.0
22/10:00pm 7.3 0.7 2.2 70 2.1 NW 26 33 14 18 1011.8 1011.9 0.0
22/09:30pm 7.3 0.0 2.6 72 2.0 NW 30 39 16 21 1011.5 1011.6 0.0
22/09:00pm 7.0 1.2 2.5 73 1.9 NW 22 33 12 18 1011.4 1011.5 0.0
22/08:30pm 7.2 0.7 2.7 73 1.9 NW 26 32 14 17 1011.2 1011.3 0.0
22/08:00pm 7.5 0.2 2.6 71 2.1 NW 30 41 16 22 1011.0 1011.1 0.0
22/07:30pm 7.3 1.1 2.2 70 2.1 NW 24 30 13 16 1010.8 1010.9 0.0
22/07:00pm 7.2 1.8 2.5 72 2.0 NW 20 32 11 17 1010.5 1010.6 0.0
22/06:30pm 7.1 0.9 2.4 72 1.9 NW 24 32 13 17 1010.4 1010.5 0.0
22/06:00pm 7.3 0.4 2.6 72 2.0 WNW 28 39 15 21 1010.1 1010.2 0.0
22/05:30pm 7.8 0.5 2.3 68 2.3 W 30 35 16 19 1009.9 1010.0 0.0
22/05:00pm 8.2 0.5 2.4 67 2.4 WNW 32 37 17 20 1009.6 1009.7 0.0
22/04:30pm 8.4 0.7 2.2 65 2.6 WNW 32 44 17 24 1009.4 1009.5 0.0
22/04:00pm 8.3 1.4 2.3 66 2.5 WNW 28 41 15 22 1009.3 1009.4 0.0
22/03:30pm 9.7 1.6 3.2 64 2.8 WNW 35 43 19 23 1009.1 1009.2 0.0
22/03:00pm 9.2 2.3 2.5 63 2.8 WNW 28 37 15 20 1009.2 1009.3 0.0
22/02:30pm 8.7 0.3 3.5 70 2.2 WNW 37 50 20 27 1008.9 1009.0 0.0
22/02:22pm 9.9 2.4 3.2 63 2.9 WNW 32 50 17 27 1008.7 1008.8 0.0
22/02:00pm 10.5 3.2 2.6 58 3.4 WNW 30 37 16 20 1008.9 1009.0 0.0
22/01:30pm 10.3 2.6 2.4 58 3.4 WNW 32 41 17 22 1008.8 1008.9 0.0
22/01:00pm 10.6 3.4 3.2 60 3.2 WNW 30 39 16 21 1008.8 1008.9 0.0
22/12:30pm 9.4 1.2 2.7 63 2.9 WNW 35 48 19 26 1009.0 1009.1 0.0
22/12:00pm 11.3 3.7 2.9 56 3.7 WNW 32 41 17 22 1009.0 1009.1 0.0
22/11:30am 9.2 1.3 2.3 62 2.9 WNW 33 54 18 29 1009.0 1009.1 0.0
22/11:00am 9.3 3.3 1.0 56 3.4 WNW 22 30 12 16 1009.2 1009.3 0.0
22/10:30am 8.0 1.2 1.0 61 2.8 WNW 26 35 14 19 1009.2 1009.3 0.0
22/10:00am 9.1 1.6 1.0 57 3.3 WNW 30 44 16 24 1009.2 1009.3 0.0
22/09:30am 8.4 1.2 0.6 58 3.1 WNW 28 43 15 23 1009.1 1009.2 0.0
22/09:00am 8.0 2.1 1.8 65 2.6 NW 22 30 12 16 1009.0 1009.1 0.0
22/08:30am 7.4 1.2 1.9 68 2.3 WNW 24 33 13 18 1008.9 1009.0 0.0
22/08:00am 6.6 -0.9 1.3 69 2.1 WNW 30 41 16 22 1008.8 1008.9 0.0
22/07:30am 6.9 -0.5 1.8 70 2.1 NW 30 37 16 20 1008.6 1008.7 0.0
22/07:00am 5.9 -0.4 1.4 73 1.8 NW 24 32 13 17 1008.4 1008.5 0.0
22/06:30am 5.9 0.9 1.4 73 1.8 NW 17 24 9 13 1008.3 1008.4 0.0
22/06:00am 6.3 0.4 1.4 71 2.0 WNW 22 30 12 16 1008.2 1008.3 0.0
22/05:30am 6.5 0.6 1.4 70 2.0 NW 22 32 12 17 1007.9 1008.0 0.0
22/05:00am 6.0 1.4 1.5 73 1.8 WNW 15 20 8 11 1008.0 1008.1 0.0
22/04:30am 6.2 -0.5 1.5 72 1.9 WNW 26 33 14 18 1008.0 1008.1 0.0
22/04:00am 6.5 -0.7 1.0 68 2.2 WNW 28 35 15 19 1007.8 1007.9 0.0
22/03:30am 6.5 -0.7 0.6 66 2.3 WNW 28 39 15 21 1007.9 1008.0 0.0
22/03:00am 6.9 0.1 0.8 65 2.4 WNW 26 39 14 21 1007.9 1008.0 0.0
22/02:30am 6.6 1.6 1.1 68 2.2 WNW 17 26 9 14 1008.1 1008.2 0.0
22/02:00am 6.6 1.0 1.1 68 2.2 NW 20 28 11 15 1007.9 1008.0 0.0
22/01:30am 6.8 0.1 1.3 68 2.2 NW 26 35 14 19 1007.8 1007.9 0.0
22/01:00am 6.7 0.8 1.6 70 2.1 NW 22 28 12 15 1007.8 1007.9 0.0
22/12:30am 5.8 1.2 1.5 74 1.7 N 15 24 8 13 1007.8 1007.9 0.0
22/12:00am 6.8 0.9 1.9 71 2.0 NW 22 35 12 19 1007.7 1007.8 0.0
 
Date/Time
EST
Temp
°C
App
Temp
°C
Dew
Point
°C
Rel
Hum
%
Delta-T
°C
Wind Press
QNH
hPa
Press
MSL
hPa
Rain since
9am
mm
Dir  Spd
km/h
Gust
km/h
Spd
kts
Gust
kts
21/11:30pm 6.9 -0.7 2.6 74 1.8 WNW 32 39 17 21 1007.3 1007.4 0.0
21/11:00pm 7.2 -0.1 2.5 72 2.0 WNW 30 46 16 25 1007.5 1007.6 0.0
21/10:54pm 7.0 0.0 2.1 71 2.0 WNW 28 46 15 25 1007.5 1007.6 0.0
21/10:30pm 6.9 -0.4 2.2 72 1.9 WNW 30 43 16 23 1007.4 1007.5 0.0
21/10:08pm 7.3 0.3 2.2 70 2.1 WNW 28 46 15 25 1007.3 1007.4 0.0
21/10:00pm 7.2 0.2 1.9 69 2.2 NW 28 37 15 20 1007.3 1007.4 0.0
21/09:30pm 7.5 -0.8 2.4 70 2.1 WNW 35 50 19 27 1007.2 1007.3 0.0
21/09:00pm 7.5 -0.8 2.0 68 2.3 WNW 35 43 19 23 1007.0 1007.1 0.0

Latest Capital City Observations: Canberra | Sydney | Melbourne | Brisbane | Adelaide | Perth | Hobart | Darwin

Other Formats:

Comma delimited format used in spreadsheet applications
http://www.bom.gov.au/fwo/IDT60901/IDT60901.95967.axf

JavaScript Object Notation format (JSON) in row-major order
http://www.bom.gov.au/fwo/IDT60901/IDT60901.95967.json